createdAt,value
2023-05-12T00:00:14.941Z,100286.41
2023-05-12T00:02:42.582Z,100288.50
2023-05-12T00:05:10.469Z,100291.34
2023-05-12T00:07:37.961Z,100278.88
2023-05-12T00:10:06.165Z,100297.69
2023-05-12T00:12:34.874Z,100296.88
2023-05-12T00:15:02.394Z,100291.63
2023-05-12T00:17:30.018Z,100295.81
2023-05-12T00:19:57.477Z,100296.72
2023-05-12T00:22:26.680Z,100302.47
2023-05-12T00:24:54.085Z,100299.44
2023-05-12T00:27:21.548Z,100293.66
2023-05-12T00:29:50.315Z,100288.75
2023-05-12T00:32:17.691Z,100291.66
2023-05-12T00:34:45.074Z,100290.63
2023-05-12T00:37:12.489Z,100285.72
2023-05-12T00:39:39.871Z,100290.47
2023-05-12T00:42:07.375Z,100290.56
2023-05-12T00:44:34.940Z,100295.88
2023-05-12T00:47:04.397Z,100302.72
2023-05-12T00:49:32.586Z,100300.44
2023-05-12T00:52:00.229Z,100302.16
2023-05-12T00:54:27.837Z,100296.38
2023-05-12T00:56:55.625Z,100303.25
2023-05-12T00:59:23.083Z,100295.41
2023-05-12T01:01:51.086Z,100296.66
2023-05-12T01:04:19.812Z,100297.47
2023-05-12T01:06:54.481Z,100296.72
2023-05-12T01:09:22.239Z,100303.25
2023-05-12T01:11:49.646Z,100299.75
2023-05-12T01:14:17.047Z,100291.53
2023-05-12T01:16:52.424Z,100296.28
2023-05-12T01:19:40.599Z,100297.22
2023-05-12T01:22:08.704Z,100298.97
2023-05-12T01:24:46.313Z,100293.91
2023-05-12T01:27:16.548Z,100305.25
2023-05-12T01:29:45.347Z,100293.28
2023-05-12T01:32:13.857Z,100302.22
2023-05-12T01:34:42.371Z,100298.06
2023-05-12T01:37:10.100Z,100296.56
2023-05-12T01:39:38.290Z,100299.38
2023-05-12T01:42:06.428Z,100307.91
2023-05-12T01:44:35.480Z,100307.41
2023-05-12T01:47:02.972Z,100306.06
2023-05-12T01:49:30.739Z,100302.16
2023-05-12T01:51:58.136Z,100303.78
2023-05-12T01:54:25.534Z,100305.59
2023-05-12T01:56:52.921Z,100312.50
2023-05-12T01:59:20.362Z,100306.69
2023-05-12T02:01:49.170Z,100316.63
2023-05-12T02:04:16.725Z,100310.78
2023-05-12T02:06:44.128Z,100311.41
2023-05-12T02:09:11.525Z,100309.19
2023-05-12T02:11:38.923Z,100312.66
2023-05-12T02:14:06.590Z,100318.19
2023-05-12T02:16:34.077Z,100313.84
2023-05-12T02:19:02.881Z,100312.72
2023-05-12T02:21:31.222Z,100318.09
2023-05-12T02:23:58.660Z,100320.13
2023-05-12T02:26:26.041Z,100322.34
2023-05-12T02:28:53.545Z,100322.44
2023-05-12T02:31:21.135Z,100323.00
2023-05-12T02:33:49.583Z,100323.81
2023-05-12T02:36:18.382Z,100321.31
2023-05-12T02:38:45.935Z,100314.34
2023-05-12T02:41:13.323Z,100320.88
2023-05-12T02:43:40.726Z,100321.06
2023-05-12T02:46:08.418Z,100325.91
2023-05-12T02:48:35.802Z,100315.09
2023-05-12T02:51:03.234Z,100322.72
2023-05-12T02:53:31.942Z,100323.72
2023-05-12T02:55:59.358Z,100312.44
2023-05-12T02:58:26.806Z,100311.41
2023-05-12T03:01:06.637Z,100312.69
2023-05-12T03:03:37.294Z,100308.75
2023-05-12T03:06:05.995Z,100323.13
2023-05-12T03:08:34.802Z,100316.28
2023-05-12T03:11:02.198Z,100324.00
2023-05-12T03:13:29.580Z,100315.94
2023-05-12T03:16:01.028Z,100318.84
2023-05-12T03:18:28.876Z,100310.41
2023-05-12T03:20:56.361Z,100319.03
2023-05-12T03:23:23.785Z,100316.56
2023-05-12T03:25:52.750Z,100319.03
2023-05-12T03:28:20.122Z,100316.56
2023-05-12T03:30:47.502Z,100321.53
2023-05-12T03:33:14.921Z,100320.44
2023-05-12T03:35:42.476Z,100312.84
2023-05-12T03:38:09.878Z,100324.44
2023-05-12T03:40:37.282Z,100324.88
2023-05-12T03:43:06.259Z,100333.50
2023-05-12T03:45:33.619Z,100335.75
2023-05-12T03:48:01.370Z,100337.03
2023-05-12T03:50:28.800Z,100333.22
2023-05-12T03:52:56.778Z,100327.88
2023-05-12T03:55:24.197Z,100324.91
2023-05-12T03:57:51.721Z,100331.97
2023-05-12T04:00:21.418Z,100331.22
2023-05-12T04:02:49.063Z,100330.06
2023-05-12T04:05:16.765Z,100327.03
2023-05-12T04:07:44.168Z,100336.72
2023-05-12T04:10:11.643Z,100336.53
2023-05-12T04:12:39.203Z,100338.53
2023-05-12T04:15:07.964Z,100336.75
2023-05-12T04:17:36.820Z,100339.56
2023-05-12T04:20:04.686Z,100336.47
2023-05-12T04:22:32.076Z,100342.59
2023-05-12T04:24:59.489Z,100345.31
2023-05-12T04:27:26.860Z,100339.03
2023-05-12T04:29:54.429Z,100338.72
2023-05-12T04:32:21.903Z,100338.59
2023-05-12T04:34:51.566Z,100347.75
2023-05-12T04:37:18.950Z,100338.84
2023-05-12T04:39:46.351Z,100351.56
2023-05-12T04:42:13.720Z,100352.75
2023-05-12T04:44:41.134Z,100351.06
2023-05-12T04:47:08.541Z,100357.78
2023-05-12T04:49:35.963Z,100363.19
2023-05-12T04:52:05.493Z,100357.09
2023-05-12T04:54:33.162Z,100356.38
2023-05-12T04:57:00.559Z,100358.06
2023-05-12T04:59:28.278Z,100349.56
2023-05-12T05:01:55.997Z,100350.69
2023-05-12T05:04:23.491Z,100345.19
2023-05-12T05:06:51.013Z,100361.66
2023-05-12T05:09:19.951Z,100352.00
2023-05-12T05:11:47.889Z,100349.94
2023-05-12T05:14:15.589Z,100357.72
2023-05-12T05:16:43.092Z,100354.28
2023-05-12T05:19:19.573Z,100356.34
2023-05-12T05:21:49.929Z,100359.31
2023-05-12T05:24:23.202Z,100363.13
2023-05-12T05:26:50.759Z,100351.19
2023-05-12T05:29:18.152Z,100360.06
2023-05-12T05:31:45.802Z,100367.63
2023-05-12T05:34:13.442Z,100355.97
2023-05-12T05:36:40.844Z,100360.66
2023-05-12T05:39:10.249Z,100361.31
2023-05-12T05:41:39.116Z,100364.38
2023-05-12T05:44:06.910Z,100356.13
2023-05-12T05:46:34.377Z,100351.34
2023-05-12T05:49:01.890Z,100360.31
2023-05-12T05:51:29.292Z,100367.88
2023-05-12T05:53:56.665Z,100369.25
2023-05-12T05:56:24.162Z,100370.72
2023-05-12T05:58:53.186Z,100368.13
2023-05-12T06:01:20.583Z,100373.28
2023-05-12T06:03:48.088Z,100374.81
2023-05-12T06:06:15.941Z,100380.81
2023-05-12T06:08:43.296Z,100375.06
2023-05-12T06:11:10.657Z,100378.19
2023-05-12T06:13:38.044Z,100385.09
2023-05-12T06:16:07.128Z,100374.44
2023-05-12T06:18:37.896Z,100379.78
2023-05-12T06:21:06.300Z,100379.84
2023-05-12T06:23:33.825Z,100374.94
2023-05-12T06:26:01.231Z,100384.31
2023-05-12T06:28:28.620Z,100389.59
2023-05-12T06:30:56.373Z,100387.84
2023-05-12T06:33:25.054Z,100386.28
2023-05-12T06:35:52.456Z,100394.06
2023-05-12T06:38:19.842Z,100396.94
2023-05-12T06:40:47.319Z,100382.72
2023-05-12T06:43:14.834Z,100391.31
2023-05-12T06:45:42.213Z,100391.91
2023-05-12T06:48:10.277Z,100388.78
2023-05-12T06:50:39.063Z,100388.78
2023-05-12T06:53:08.043Z,100388.03
2023-05-12T06:55:35.530Z,100388.53
2023-05-12T06:58:03.226Z,100385.47
2023-05-12T07:00:30.650Z,100389.13
2023-05-12T07:02:58.309Z,100387.22
2023-05-12T07:05:25.835Z,100385.19
2023-05-12T07:07:54.591Z,100390.41
2023-05-12T07:10:22.084Z,100386.31
2023-05-12T07:12:49.521Z,100378.72
2023-05-12T07:15:16.909Z,100376.25
2023-05-12T07:17:44.352Z,100383.97
2023-05-12T07:20:12.769Z,100375.09
2023-05-12T07:22:40.229Z,100375.00
2023-05-12T07:25:09.748Z,100373.41
2023-05-12T07:27:37.210Z,100371.78
2023-05-12T07:30:05.664Z,100373.84
2023-05-12T07:32:33.323Z,100371.81
2023-05-12T07:35:00.812Z,100381.47
2023-05-12T07:37:28.409Z,100370.56
2023-05-12T07:39:55.961Z,100389.53
2023-05-12T07:42:27.809Z,100374.63
2023-05-12T07:44:55.260Z,100373.84
2023-05-12T07:47:22.692Z,100369.91
2023-05-12T07:49:50.082Z,100368.59
2023-05-12T07:52:17.575Z,100377.16
2023-05-12T07:54:45.003Z,100369.63
2023-05-12T07:57:12.393Z,100375.34
2023-05-12T07:59:41.211Z,100373.38
2023-05-12T08:02:08.701Z,100367.50
2023-05-12T08:04:36.156Z,100371.38
2023-05-12T08:07:03.594Z,100365.94
2023-05-12T08:09:31.001Z,100366.31
2023-05-12T08:11:58.348Z,100369.28
2023-05-12T08:14:25.807Z,100375.53
2023-05-12T08:16:54.630Z,100367.56
2023-05-12T08:21:53.574Z,100369.84
2023-05-12T08:24:21.846Z,100371.75
2023-05-12T08:26:49.424Z,100365.19
2023-05-12T08:29:17.526Z,100366.28
2023-05-12T08:31:44.994Z,100362.00
2023-05-12T08:34:13.704Z,100364.72
2023-05-12T08:36:41.169Z,100373.44
2023-05-12T08:39:10.090Z,100373.53
2023-05-12T08:41:45.950Z,100373.00
2023-05-12T08:44:13.685Z,100380.00
2023-05-12T08:46:41.836Z,100376.13
2023-05-12T08:49:15.716Z,100375.72
2023-05-12T08:51:54.396Z,100374.00
2023-05-12T08:54:25.911Z,100374.81
2023-05-12T08:59:25.427Z,100375.81
2023-05-12T09:01:55.893Z,100387.91
2023-05-12T09:04:23.407Z,100374.53
2023-05-12T09:06:55.569Z,100380.22
2023-05-12T09:09:24.705Z,100374.00
2023-05-12T09:11:57.347Z,100378.34
2023-05-12T09:14:26.725Z,100375.00
2023-05-12T09:16:59.452Z,100378.19
2023-05-12T09:19:27.135Z,100384.56
2023-05-12T09:21:56.212Z,100386.47
2023-05-12T09:24:35.163Z,100379.16
2023-05-12T09:27:03.809Z,100389.56
2023-05-12T09:29:35.903Z,100386.56
2023-05-12T09:32:09.802Z,100375.31
2023-05-12T09:34:40.595Z,100385.38
2023-05-12T09:37:09.318Z,100373.34
2023-05-12T09:39:37.214Z,100384.69
2023-05-12T09:42:05.099Z,100375.03
2023-05-12T09:44:33.277Z,100373.75
2023-05-12T09:47:06.944Z,100370.16
2023-05-12T09:49:34.347Z,100365.34
2023-05-12T09:52:01.738Z,100380.22
2023-05-12T09:54:32.147Z,100373.00
2023-05-12T09:57:01.448Z,100376.28
2023-05-12T09:59:32.757Z,100377.41
2023-05-12T10:02:02.283Z,100368.13
2023-05-12T10:04:33.319Z,100369.75
2023-05-12T10:07:01.208Z,100376.84
2023-05-12T10:09:36.379Z,100376.06
2023-05-12T10:12:04.481Z,100371.09
2023-05-12T10:14:32.788Z,100378.56
2023-05-12T10:17:01.486Z,100365.25
2023-05-12T10:19:31.130Z,100359.06
2023-05-12T10:21:59.194Z,100368.66
2023-05-12T10:24:27.950Z,100364.09
2023-05-12T10:26:57.926Z,100356.19
2023-05-12T10:29:29.503Z,100361.31
2023-05-12T10:31:57.448Z,100358.63
2023-05-12T10:34:31.326Z,100356.78
2023-05-12T10:36:59.632Z,100357.97
2023-05-12T10:39:29.292Z,100356.84
2023-05-12T10:42:06.357Z,100359.38
2023-05-12T10:44:33.771Z,100364.81
2023-05-12T10:47:01.159Z,100361.50
2023-05-12T10:49:37.516Z,100363.94
2023-05-12T10:52:05.169Z,100350.44
2023-05-12T10:54:41.334Z,100350.16
2023-05-12T10:57:19.012Z,100353.00
2023-05-12T10:59:51.245Z,100368.69
2023-05-12T11:02:21.200Z,100363.72
2023-05-12T11:04:51.477Z,100352.00
2023-05-12T11:07:24.474Z,100350.88
2023-05-12T11:09:57.541Z,100353.03
2023-05-12T11:12:32.391Z,100360.50
2023-05-12T11:15:01.308Z,100350.03
2023-05-12T11:17:28.894Z,100350.25
2023-05-12T11:19:56.759Z,100361.00
2023-05-12T11:22:25.018Z,100356.16
2023-05-12T11:24:53.419Z,100356.09
2023-05-12T11:27:23.964Z,100358.53
2023-05-12T11:30:00.560Z,100357.56
2023-05-12T11:32:28.269Z,100354.16
2023-05-12T11:34:56.172Z,100362.38
2023-05-12T11:37:24.021Z,100358.69
2023-05-12T11:39:52.964Z,100367.97
2023-05-12T11:42:22.802Z,100364.00
2023-05-12T11:44:51.820Z,100370.13
2023-05-12T11:47:20.869Z,100365.69
2023-05-12T11:49:49.955Z,100362.19
2023-05-12T11:52:18.357Z,100371.84
2023-05-12T11:54:49.997Z,100369.09
2023-05-12T11:57:25.989Z,100365.75
2023-05-12T11:59:58.670Z,100371.31
2023-05-12T12:02:27.544Z,100369.31
2023-05-12T12:04:55.229Z,100373.47
2023-05-12T12:07:30.843Z,100367.47
2023-05-12T12:09:58.410Z,100374.00
2023-05-12T12:12:26.026Z,100381.09
2023-05-12T12:14:54.092Z,100373.94
2023-05-12T12:17:28.438Z,100385.97
2023-05-12T12:19:57.256Z,100383.44
2023-05-12T12:22:24.752Z,100388.03
2023-05-12T12:24:52.185Z,100393.25
2023-05-12T12:27:19.654Z,100389.13
2023-05-12T12:29:47.064Z,100395.50
2023-05-12T12:32:14.438Z,100384.56
2023-05-12T12:34:42.403Z,100393.97
2023-05-12T12:37:11.205Z,100379.78
2023-05-12T12:39:38.658Z,100382.47
2023-05-12T12:42:06.554Z,100393.28
2023-05-12T12:44:33.989Z,100386.75
2023-05-12T12:47:01.411Z,100385.03
2023-05-12T12:49:28.895Z,100378.50
2023-05-12T12:51:56.760Z,100384.50
2023-05-12T12:54:27.274Z,100393.78
2023-05-12T12:56:55.485Z,100390.88
2023-05-12T12:59:23.271Z,100381.38
2023-05-12T13:01:50.764Z,100379.91
2023-05-12T13:04:22.376Z,100378.91
2023-05-12T13:06:49.886Z,100372.47
2023-05-12T13:09:19.980Z,100374.00
2023-05-12T13:11:49.036Z,100385.22
2023-05-12T13:14:16.961Z,100381.97
2023-05-12T13:16:44.362Z,100378.72
2023-05-12T13:19:12.014Z,100381.53
2023-05-12T13:21:39.497Z,100381.44
2023-05-12T13:24:06.989Z,100380.56
2023-05-12T13:26:34.458Z,100371.91
2023-05-12T13:29:04.213Z,100382.84
2023-05-12T13:31:31.698Z,100371.06
2023-05-12T13:33:59.103Z,100379.31
2023-05-12T13:36:26.795Z,100385.41
2023-05-12T13:38:54.228Z,100378.69
2023-05-12T13:41:21.652Z,100387.16
2023-05-12T13:43:49.064Z,100377.09
2023-05-12T13:46:17.761Z,100380.13
2023-05-12T13:48:45.491Z,100371.09
2023-05-12T13:51:12.910Z,100373.63
2023-05-12T13:53:40.440Z,100376.31
2023-05-12T13:56:08.820Z,100370.97
2023-05-12T13:58:36.186Z,100368.84
2023-05-12T14:01:03.706Z,100366.22
2023-05-12T14:03:32.398Z,100361.34
2023-05-12T14:05:59.794Z,100365.13
2023-05-12T14:08:27.157Z,100368.84
2023-05-12T14:10:54.835Z,100374.38
2023-05-12T14:13:22.275Z,100378.50
2023-05-12T14:15:50.339Z,100381.81
2023-05-12T14:18:17.875Z,100409.06
2023-05-12T14:20:47.022Z,100417.84
2023-05-12T14:23:14.428Z,100431.56
2023-05-12T14:25:41.972Z,100421.41
2023-05-12T14:28:09.527Z,100420.94
2023-05-12T14:30:37.432Z,100426.22
2023-05-12T14:33:05.309Z,100412.22
2023-05-12T14:35:32.770Z,100406.91
2023-05-12T14:38:01.626Z,100409.84
2023-05-12T14:40:29.076Z,100403.06
2023-05-12T14:42:56.613Z,100411.91
2023-05-12T14:45:25.701Z,100410.22
2023-05-12T14:47:53.290Z,100412.09
2023-05-12T14:50:21.161Z,100409.34
2023-05-12T14:52:48.692Z,100411.47
2023-05-12T14:55:18.156Z,100403.63
2023-05-12T14:57:46.289Z,100403.06
2023-05-12T15:00:16.019Z,100408.09
2023-05-12T15:02:44.861Z,100402.06
2023-05-12T15:05:13.675Z,100388.75
2023-05-12T15:07:41.219Z,100389.63
2023-05-12T15:10:09.288Z,100389.63
2023-05-12T15:12:38.000Z,100393.25
2023-05-12T15:15:08.443Z,100392.09
2023-05-12T15:17:36.240Z,100391.25
2023-05-12T15:20:04.438Z,100393.63
2023-05-12T15:22:32.237Z,100396.88
2023-05-12T15:25:00.202Z,100393.66
2023-05-12T15:27:27.702Z,100387.47
2023-05-12T15:29:56.445Z,100391.94
2023-05-12T15:32:23.879Z,100395.56
2023-05-12T15:34:51.698Z,100398.53
2023-05-12T15:37:19.095Z,100398.03
2023-05-12T15:39:46.588Z,100384.66
2023-05-12T15:42:14.664Z,100393.91
2023-05-12T15:44:46.850Z,100389.09
2023-05-12T15:47:15.802Z,100386.06
2023-05-12T15:49:43.199Z,100382.00
2023-05-12T15:52:11.417Z,100385.22
2023-05-12T15:54:39.374Z,100394.16
2023-05-12T15:57:07.308Z,100404.00
2023-05-12T15:59:34.871Z,100399.94
2023-05-12T16:02:02.300Z,100401.66
2023-05-12T16:04:31.026Z,100409.81
2023-05-12T16:06:58.478Z,100403.78
2023-05-12T16:09:26.493Z,100394.91
2023-05-12T16:11:54.766Z,100389.13
2023-05-12T16:14:22.756Z,100388.81
2023-05-12T16:16:51.466Z,100388.84
2023-05-12T16:19:19.004Z,100380.31
2023-05-12T16:21:47.743Z,100393.50
2023-05-12T16:24:15.123Z,100390.22
2023-05-12T16:26:42.500Z,100387.91
2023-05-12T16:29:10.015Z,100385.13
2023-05-12T16:31:37.731Z,100385.94
2023-05-12T16:34:05.314Z,100387.56
2023-05-12T16:36:32.746Z,100395.63
2023-05-12T16:39:01.649Z,100392.44
2023-05-12T16:41:29.176Z,100405.03
2023-05-12T16:43:56.657Z,100423.22
2023-05-12T16:46:24.287Z,100425.59
2023-05-12T16:48:51.731Z,100416.97
2023-05-12T16:51:19.146Z,100421.88
2023-05-12T16:53:46.544Z,100443.16
2023-05-12T16:56:17.102Z,100439.91
2023-05-12T16:58:44.527Z,100438.81
2023-05-12T17:01:11.993Z,100448.94
2023-05-12T17:03:39.737Z,100448.13
2023-05-12T17:06:07.511Z,100454.16
2023-05-12T17:08:36.267Z,100460.09
2023-05-12T17:11:03.960Z,100460.88
2023-05-12T17:13:36.357Z,100464.47
2023-05-12T17:16:04.247Z,100466.63
2023-05-12T17:18:31.783Z,100464.16
2023-05-12T17:20:59.451Z,100468.66
2023-05-12T17:23:28.113Z,100461.91
2023-05-12T17:25:55.494Z,100471.28
2023-05-12T17:28:22.905Z,100469.19
2023-05-12T17:30:51.605Z,100459.91
2023-05-12T17:33:20.122Z,100458.41
2023-05-12T17:36:00.487Z,100471.75
2023-05-12T17:38:34.940Z,100467.34
2023-05-12T17:41:02.389Z,100459.75
2023-05-12T17:43:30.383Z,100463.19
2023-05-12T17:46:00.392Z,100467.66
2023-05-12T17:48:28.016Z,100470.44
2023-05-12T17:50:55.753Z,100468.16
2023-05-12T17:53:23.418Z,100467.38
2023-05-12T17:55:50.794Z,100465.97
2023-05-12T17:58:18.401Z,100474.88
2023-05-12T18:00:45.799Z,100464.38
2023-05-12T18:03:14.653Z,100464.47
2023-05-12T18:05:42.243Z,100461.03
2023-05-12T18:08:09.707Z,100471.13
2023-05-12T18:10:37.294Z,100476.25
2023-05-12T18:13:05.080Z,100473.06
2023-05-12T18:15:32.521Z,100471.06
2023-05-12T18:18:00.522Z,100467.09
2023-05-12T18:20:29.492Z,100463.38
2023-05-12T18:22:56.846Z,100463.56
2023-05-12T18:25:24.296Z,100473.69
2023-05-12T18:27:52.095Z,100465.00
2023-05-12T18:30:19.723Z,100469.41
2023-05-12T18:32:47.191Z,100470.13
2023-05-12T18:35:14.631Z,100462.97
2023-05-12T18:37:45.101Z,100462.56
2023-05-12T18:40:13.118Z,100478.28
2023-05-12T18:42:40.513Z,100472.19
2023-05-12T18:45:08.821Z,100483.84
2023-05-12T18:47:36.392Z,100485.00
2023-05-12T18:50:04.202Z,100483.22
2023-05-12T18:52:32.288Z,100487.63
2023-05-12T18:55:01.034Z,100487.09
2023-05-12T18:57:28.456Z,100501.59
2023-05-12T18:59:55.870Z,100510.31
2023-05-12T19:02:23.355Z,100509.78
2023-05-12T19:04:50.905Z,100515.38
2023-05-12T19:07:18.348Z,100501.69
2023-05-12T19:09:45.795Z,100512.81
2023-05-12T19:12:14.540Z,100522.00
2023-05-12T19:14:43.062Z,100522.00
2023-05-12T19:17:10.843Z,100525.97
2023-05-12T19:19:38.248Z,100518.91
2023-05-12T19:22:06.691Z,100535.06
2023-05-12T19:24:35.338Z,100537.50
2023-05-12T19:27:02.750Z,100537.81
2023-05-12T19:29:31.576Z,100540.25
2023-05-12T19:31:59.079Z,100547.22
2023-05-12T19:34:30.060Z,100545.19
2023-05-12T19:37:00.723Z,100553.72
2023-05-12T19:39:28.204Z,100558.09
2023-05-12T19:41:55.711Z,100552.72
2023-05-12T19:44:23.467Z,100554.84
2023-05-12T19:46:52.303Z,100552.53
2023-05-12T19:49:19.735Z,100562.06
2023-05-12T19:51:48.616Z,100560.16
2023-05-12T19:54:16.137Z,100568.50
2023-05-12T19:56:43.571Z,100564.03
2023-05-12T19:59:11.280Z,100566.81
2023-05-12T20:01:38.846Z,100568.53
2023-05-12T20:04:07.839Z,100573.56
2023-05-12T20:06:35.716Z,100570.00
2023-05-12T20:09:03.220Z,100577.41
2023-05-12T20:11:34.067Z,100584.34
2023-05-12T20:14:01.469Z,100583.00
2023-05-12T20:16:28.956Z,100584.28
2023-05-12T20:18:56.771Z,100587.81
2023-05-12T20:21:25.589Z,100583.31
2023-05-12T20:23:57.084Z,100581.94
2023-05-12T20:26:24.586Z,100581.41
2023-05-12T20:28:52.103Z,100576.69
2023-05-12T20:31:20.049Z,100571.31
2023-05-12T20:33:47.507Z,100566.22
2023-05-12T20:36:14.855Z,100577.94
2023-05-12T20:38:43.539Z,100586.75
2023-05-12T20:41:11.808Z,100581.47
2023-05-12T20:43:40.960Z,100575.94
2023-05-12T20:46:08.662Z,100581.94
2023-05-12T20:48:36.384Z,100580.38
2023-05-12T20:51:11.089Z,100591.28
2023-05-12T20:53:38.455Z,100593.31
2023-05-12T20:56:08.600Z,100589.75
2023-05-12T20:58:36.451Z,100597.22
2023-05-12T21:01:04.153Z,100588.13
2023-05-12T21:03:31.722Z,100591.16
2023-05-12T21:05:59.437Z,100591.22
2023-05-12T21:08:26.870Z,100593.94
2023-05-12T21:10:54.463Z,100595.59
2023-05-12T21:13:23.195Z,100600.69
2023-05-12T21:15:51.333Z,100609.66
2023-05-12T21:18:18.713Z,100601.75
2023-05-12T21:20:46.103Z,100615.91
2023-05-12T21:23:13.678Z,100613.94
2023-05-12T21:25:41.098Z,100624.69
2023-05-12T21:28:08.558Z,100615.84
2023-05-12T21:30:37.397Z,100626.56
2023-05-12T21:33:05.507Z,100625.50
2023-05-12T21:35:32.960Z,100628.44
2023-05-12T21:38:00.435Z,100619.16
2023-05-12T21:40:29.071Z,100622.34
2023-05-12T21:42:56.468Z,100621.56
2023-05-12T21:45:24.071Z,100624.25
2023-05-12T21:47:53.204Z,100622.72
2023-05-12T21:50:21.713Z,100635.00
2023-05-12T21:52:49.976Z,100641.75
2023-05-12T21:55:17.446Z,100641.88
2023-05-12T21:57:44.818Z,100641.63
2023-05-12T22:00:14.524Z,100656.59
2023-05-12T22:02:42.083Z,100651.19
2023-05-12T22:05:10.990Z,100655.75
2023-05-12T22:07:38.377Z,100651.75
2023-05-12T22:10:06.604Z,100651.16
2023-05-12T22:12:34.320Z,100657.13
2023-05-12T22:15:01.769Z,100657.16
2023-05-12T22:17:29.315Z,100659.94
2023-05-12T22:19:56.869Z,100652.81
2023-05-12T22:22:25.629Z,100654.47
2023-05-12T22:24:53.077Z,100659.66
2023-05-12T22:27:22.341Z,100651.59
2023-05-12T22:29:50.019Z,100654.28
2023-05-12T22:32:17.447Z,100654.28
2023-05-12T22:34:44.843Z,100659.22
2023-05-12T22:37:12.284Z,100659.22
2023-05-12T22:39:40.984Z,100665.34
2023-05-12T22:42:08.740Z,100668.81
2023-05-12T22:44:36.242Z,100664.66
2023-05-12T22:47:03.711Z,100668.81
2023-05-12T22:49:31.131Z,100671.16
2023-05-12T22:51:59.017Z,100666.34
2023-05-12T22:54:26.423Z,100669.47
2023-05-12T22:56:55.248Z,100676.97
2023-05-12T22:59:22.626Z,100687.59
2023-05-12T23:01:50.126Z,100688.78
2023-05-12T23:04:17.627Z,100683.16
2023-05-12T23:06:45.369Z,100676.38
2023-05-12T23:09:12.792Z,100682.78
2023-05-12T23:11:40.288Z,100683.63
2023-05-12T23:14:11.355Z,100679.31
2023-05-12T23:16:38.800Z,100677.00
2023-05-12T23:19:06.241Z,100685.00
2023-05-12T23:21:33.782Z,100687.47
2023-05-12T23:24:01.254Z,100685.72
2023-05-12T23:26:28.668Z,100687.00
2023-05-12T23:28:56.130Z,100684.28
2023-05-12T23:31:25.304Z,100681.28
2023-05-12T23:33:52.865Z,100682.13
2023-05-12T23:36:20.338Z,100686.25
2023-05-12T23:38:50.703Z,100689.81
2023-05-12T23:41:18.045Z,100694.53
2023-05-12T23:43:45.509Z,100693.09
2023-05-12T23:46:13.023Z,100690.69
2023-05-12T23:48:41.770Z,100692.13
2023-05-12T23:51:09.189Z,100694.66
2023-05-12T23:53:36.565Z,100690.16
2023-05-12T23:56:03.947Z,100681.69
2023-05-12T23:58:31.452Z,100689.97
